| time (UTC) | temp C | wind direction | speed KPH | gust KPH | rain 1hr cm | rain 24hr cm | rain mn cm | humidity % | barometer mb |
| 20260906030032 | 22 | 20 | 6.4 | 9.7 | 0.00 | 0.00 | 0.00 | 97 | 1020.4 |
| 20260906025532 | 22 | 9 | 4.8 | 4.8 | 0.00 | 0.00 | 0.00 | 97 | 1020.4 |
| 20260906025030 | 22 | 55 | 4.8 | 4.8 | 0.00 | 0.00 | 0.00 | 97 | 1020.2 |
| 20260906024526 | 22 | 36 | 8.0 | 9.7 | 0.00 | 0.00 | 0.00 | 97 | 1020.4 |
| 20260906024025 | 22 | 74 | 3.2 | 4.8 | 0.00 | 0.00 | 0.00 | 96 | 1020.4 |
| 20260906023522 | 22 | 46 | 12.9 | 17.7 | 0.00 | 0.00 | 0.00 | 96 | 1020.5 |
| 20260906023016 | 22 | 82 | 3.2 | 3.2 | 0.00 | 0.00 | 0.00 | 95 | 1020.4 |
| 20260906022512 | 22 | 32 | 6.4 | 8.0 | 0.00 | 0.00 | 0.00 | 94 | 1020.6 |
| 20260906022007 | 22 | 34 | 6.4 | 11.3 | 0.00 | 0.00 | 0.00 | 94 | 1020.4 |
| 20260906021502 | 22 | 57 | 8.0 | 9.7 | 0.00 | 0.00 | 0.00 | 94 | 1020.6 |
| 20260906020956 | 22 | 46 | 4.8 | 9.7 | 0.00 | 0.00 | 0.00 | 94 | 1020.6 |
| 20260906020450 | 22 | 41 | 8.0 | 16.1 | 0.00 | 0.00 | 0.00 | 94 | 1020.6 |
| 20260906015950 | 22 | 54 | 4.8 | 8.0 | 0.00 | 0.00 | 0.00 | 94 | 1020.7 |
| 20260906015449 | 22 | 48 | 4.8 | 4.8 | 0.00 | 0.00 | 0.00 | 94 | 1020.8 |
| 20260906014949 | 22 | 13 | 11.3 | 12.9 | 0.00 | 0.00 | 0.00 | 94 | 1020.8 |
| 20260906014449 | 22 | 30 | 8.0 | 9.7 | 0.00 | 0.00 | 0.00 | 95 | 1020.5 |
| 20260906013946 | 22 | 43 | 9.7 | 12.9 | 0.00 | 0.00 | 0.00 | 95 | 1020.6 |
| 20260906013441 | 22 | 22 | 11.3 | 12.9 | 0.00 | 0.00 | 0.00 | 95 | 1020.5 |
| 20260906012937 | 22 | 28 | 11.3 | 12.9 | 0.00 | 0.00 | 0.00 | 95 | 1020.2 |
| 20260906012437 | 22 | 347 | 12.9 | 16.1 | 0.00 | 0.00 | 0.00 | 95 | 1020.3 |
| 20260906011936 | 22 | 31 | 16.1 | 24.1 | 0.00 | 0.00 | 0.00 | 95 | 1020.2 |
| 20260906011432 | 22 | 35 | 6.4 | 8.0 | 0.00 | 0.00 | 0.00 | 94 | 1020.1 |
| 20260906010927 | 22 | 354 | 8.0 | 12.9 | 0.00 | 0.00 | 0.00 | 94 | 1020.0 |
| 20260906010422 | 22 | 24 | 11.3 | 14.5 | 0.00 | 0.00 | 0.00 | 94 | 1020.0 |
| 20260906005918 | 22 | 5 | 6.4 | 8.0 | 0.00 | 0.00 | 0.00 | 94 | 1019.9 |
| 20260906005417 | 22 | 33 | 8.0 | 9.7 | 0.00 | 0.00 | 0.00 | 94 | 1019.7 |
| 20260906004916 | 22 | 23 | 11.3 | 16.1 | 0.00 | 0.00 | 0.00 | 94 | 1019.5 |
| 20260906004410 | 22 | 339 | 11.3 | 16.1 | 0.00 | 0.00 | 0.00 | 94 | 1019.7 |
| 20260906003906 | 22 | 348 | 9.7 | 11.3 | 0.00 | 0.00 | 0.00 | 93 | 1019.7 |
| 20260906003401 | 22 | 38 | 14.5 | 17.7 | 0.00 | 0.00 | 0.00 | 93 | 1019.5 |
| 20260906002857 | 22 | 27 | 14.5 | 16.1 | 0.00 | 0.00 | 0.00 | 93 | 1019.6 |
| 20260906002356 | 22 | 350 | 8.0 | 9.7 | 0.00 | 0.00 | 0.00 | 93 | 1019.7 |
| 20260906001852 | 22 | 345 | 11.3 | 14.5 | 0.00 | 0.00 | 0.00 | 93 | 1019.8 |
| 20260906001347 | 22 | 3 | 14.5 | 20.9 | 0.00 | 0.00 | 0.00 | 93 | 1019.7 |
| 20260906000842 | 22 | 43 | 17.7 | 20.9 | 0.00 | 0.00 | 0.00 | 93 | 1019.6 |
| 20260906000342 | 23 | 49 | 6.4 | 9.7 | 0.00 | 0.00 | 0.00 | 94 | 1019.6 |
| 20260905235842 | 23 | 48 | 9.7 | 12.9 | 0.00 | 0.00 | 0.00 | 93 | 1019.7 |
| 20260905235337 | 23 | 352 | 14.5 | 17.7 | 0.00 | 0.00 | 0.00 | 92 | 1019.7 |
| 20260905234832 | 23 | 19 | 11.3 | 12.9 | 0.00 | 0.00 | 0.00 | 92 | 1019.6 |
| 20260905234327 | 23 | 9 | 12.9 | 16.1 | 0.00 | 0.00 | 0.00 | 92 | 1019.6 |
| 20260905233823 | 23 | 6 | 11.3 | 12.9 | 0.00 | 0.00 | 0.00 | 91 | 1019.3 |
| 20260905233317 | 23 | 13 | 8.0 | 12.9 | 0.00 | 0.00 | 0.00 | 91 | 1019.5 |
| 20260905232817 | 23 | 36 | 16.1 | 17.7 | 0.00 | 0.00 | 0.00 | 90 | 1019.4 |
| 20260905232313 | 23 | 37 | 14.5 | 16.1 | 0.00 | 0.00 | 0.00 | 89 | 1019.5 |
| 20260905231808 | 24 | 41 | 8.0 | 9.7 | 0.00 | 0.00 | 0.00 | 89 | 1019.3 |
| 20260905231303 | 24 | 1 | 14.5 | 17.7 | 0.00 | 0.00 | 0.00 | 89 | 1019.2 |
| 20260905230800 | 24 | 39 | 9.7 | 14.5 | 0.00 | 0.00 | 0.00 | 89 | 1019.3 |
| 20260905230257 | 24 | 50 | 9.7 | 14.5 | 0.00 | 0.00 | 0.00 | 90 | 1019.2 |
| 20260905225757 | 24 | 47 | 16.1 | 20.9 | 0.00 | 0.00 | 0.00 | 89 | 1019.3 |
| 20260905225252 | 25 | 355 | 17.7 | 22.5 | 0.00 | 0.00 | 0.00 | 89 | 1019.5 |
| 20260905224751 | 24 | 21 | 17.7 | 20.9 | 0.00 | 0.00 | 0.00 | 90 | 1019.4 |
| 20260905224247 | 24 | 38 | 8.0 | 9.7 | 0.00 | 0.00 | 0.00 | 91 | 1019.3 |
| 20260905223743 | 23 | 28 | 8.0 | 12.9 | 0.00 | 0.00 | 0.00 | 91 | 1019.4 |
| 20260905223240 | 23 | 62 | 11.3 | 12.9 | 0.00 | 0.00 | 0.00 | 91 | 1019.3 |
| 20260905222735 | 24 | 5 | 19.3 | 24.1 | 0.00 | 0.00 | 0.00 | 91 | 1019.5 |
| 20260905222234 | 23 | 13 | 12.9 | 12.9 | 0.00 | 0.00 | 0.00 | 92 | 1019.7 |
| 20260905221730 | 23 | 27 | 6.4 | 9.7 | 0.00 | 0.00 | 0.00 | 92 | 1019.4 |
| 20260905221227 | 24 | 11 | 16.1 | 17.7 | 0.00 | 0.00 | 0.00 | 92 | 1019.3 |
| 20260905220722 | 24 | 3 | 11.3 | 14.5 | 0.00 | 0.00 | 0.00 | 91 | 1019.1 |
| 20260905220218 | 24 | 13 | 9.7 | 12.9 | 0.00 | 0.00 | 0.00 | 91 | 1019.2 |
| 20260905215718 | 24 | 25 | 8.0 | 9.7 | 0.00 | 0.00 | 0.00 | 90 | 1019.5 |
| 20260905215214 | 24 | 359 | 12.9 | 16.1 | 0.00 | 0.00 | 0.00 | 89 | 1019.2 |
| 20260905214709 | 24 | 37 | 11.3 | 12.9 | 0.00 | 0.00 | 0.00 | 89 | 1019.3 |
| 20260905214204 | 24 | 41 | 16.1 | 17.7 | 0.00 | 0.00 | 0.00 | 89 | 1019.3 |
| 20260905213700 | 25 | 4 | 9.7 | 12.9 | 0.00 | 0.00 | 0.00 | 89 | 1019.3 |
| 20260905213155 | 25 | 354 | 14.5 | 20.9 | 0.00 | 0.00 | 0.00 | 88 | 1019.1 |
| 20260905212650 | 25 | 6 | 14.5 | 20.9 | 0.00 | 0.00 | 0.00 | 89 | 1019.2 |
| 20260905212150 | 25 | 27 | 12.9 | 16.1 | 0.00 | 0.00 | 0.00 | 89 | 1019.0 |
| 20260905211644 | 25 | 39 | 12.9 | 16.1 | 0.00 | 0.00 | 0.00 | 88 | 1019.0 |
| 20260905211140 | 25 | 27 | 9.7 | 14.5 | 0.00 | 0.00 | 0.00 | 88 | 1019.2 |
| 20260905210637 | 26 | 9 | 11.3 | 12.9 | 0.00 | 0.00 | 0.00 | 87 | 1019.1 |
| 20260905210136 | 25 | 26 | 11.3 | 14.5 | 0.00 | 0.00 | 0.00 | 88 | 1019.0 |
| 20260905205635 | 26 | 7 | 14.5 | 17.7 | 0.00 | 0.00 | 0.00 | 87 | 1019.0 |
| 20260905205130 | 25 | 341 | 16.1 | 20.9 | 0.00 | 0.00 | 0.00 | 88 | 1018.9 |
| 20260905204629 | 26 | 44 | 14.5 | 20.9 | 0.00 | 0.00 | 0.00 | 86 | 1018.9 |
| 20260905204125 | 26 | 27 | 14.5 | 20.9 | 0.00 | 0.00 | 0.00 | 87 | 1019.0 |
| 20260905203625 | 26 | 18 | 14.5 | 17.7 | 0.00 | 0.00 | 0.00 | 88 | 1019.2 |
| 20260905203120 | 26 | 29 | 6.4 | 8.0 | 0.00 | 0.00 | 0.00 | 88 | 1019.0 |
| 20260905202616 | 26 | 21 | 17.7 | 22.5 | 0.00 | 0.00 | 0.00 | 85 | 1018.9 |
| 20260905202111 | 26 | 332 | 12.9 | 16.1 | 0.00 | 0.00 | 0.00 | 87 | 1019.1 |
| 20260905201607 | 26 | 15 | 12.9 | 17.7 | 0.00 | 0.00 | 0.00 | 85 | 1019.1 |
| 20260905201106 | 27 | 8 | 12.9 | 20.9 | 0.00 | 0.00 | 0.00 | 85 | 1019.1 |
| 20260905200602 | 26 | 9 | 8.0 | 12.9 | 0.00 | 0.00 | 0.00 | 87 | 1019.2 |
| 20260905200056 | 27 | 2 | 16.1 | 20.9 | 0.00 | 0.00 | 0.00 | 85 | 1019.3 |
| 20260905195555 | 26 | 25 | 17.7 | 22.5 | 0.00 | 0.00 | 0.00 | 84 | 1019.1 |
| 20260905195051 | 27 | 341 | 14.5 | 16.1 | 0.00 | 0.00 | 0.00 | 84 | 1019.0 |
| 20260905194550 | 27 | 4 | 17.7 | 20.9 | 0.00 | 0.00 | 0.00 | 83 | 1019.0 |
| 20260905194050 | 26 | 359 | 16.1 | 17.7 | 0.00 | 0.00 | 0.00 | 83 | 1019.0 |
| 20260905193545 | 27 | 35 | 11.3 | 11.3 | 0.00 | 0.00 | 0.00 | 85 | 1019.2 |
| 20260905193040 | 27 | 332 | 11.3 | 14.5 | 0.00 | 0.00 | 0.00 | 86 | 1019.1 |
| 20260905192535 | 27 | 357 | 17.7 | 24.1 | 0.00 | 0.00 | 0.00 | 84 | 1019.3 |
| 20260905192032 | 28 | 11 | 12.9 | 16.1 | 0.00 | 0.00 | 0.00 | 84 | 1019.2 |
| 20260905191530 | 27 | 349 | 9.7 | 11.3 | 0.00 | 0.00 | 0.00 | 82 | 1019.2 |
| 20260905191029 | 28 | 31 | 8.0 | 9.7 | 0.00 | 0.00 | 0.00 | 82 | 1019.0 |
| 20260905190528 | 27 | 39 | 11.3 | 12.9 | 0.00 | 0.00 | 0.00 | 82 | 1019.3 |
| 20260905190028 | 28 | 72 | 11.3 | 16.1 | 0.00 | 0.00 | 0.00 | 82 | 1018.9 |
| 20260905185527 | 28 | 4 | 12.9 | 16.1 | 0.00 | 0.00 | 0.00 | 81 | 1019.3 |
| 20260905185026 | 28 | 2 | 14.5 | 16.1 | 0.00 | 0.00 | 0.00 | 82 | 1019.2 |
| 20260905184521 | 28 | 41 | 14.5 | 16.1 | 0.00 | 0.00 | 0.00 | 82 | 1019.0 |
| 20260905184020 | 28 | 4 | 11.3 | 12.9 | 0.00 | 0.00 | 0.00 | 83 | 1019.0 |
| 20260905183519 | 28 | 25 | 14.5 | 20.9 | 0.00 | 0.00 | 0.00 | 82 | 1019.3 |
| 20260905183015 | 28 | 342 | 17.7 | 20.9 | 0.00 | 0.00 | 0.00 | 82 | 1019.1 |
| 20260905182514 | 28 | 42 | 12.9 | 16.1 | 0.00 | 0.00 | 0.00 | 81 | 1019.1 |
| 20260905182009 | 28 | 37 | 12.9 | 17.7 | 0.00 | 0.00 | 0.00 | 82 | 1018.9 |
| 20260905181510 | 28 | 10 | 11.3 | 14.5 | 0.00 | 0.00 | 0.00 | 80 | 1019.0 |
| 20260905181009 | 28 | 9 | 12.9 | 16.1 | 0.00 | 0.00 | 0.00 | 80 | 1018.7 |
| 20260905180504 | 28 | 28 | 14.5 | 20.9 | 0.00 | 0.00 | 0.00 | 81 | 1019.0 |
| 20260905175959 | 28 | 16 | 11.3 | 12.9 | 0.00 | 0.00 | 0.00 | 81 | 1019.0 |
| 20260905175458 | 28 | 49 | 4.8 | 8.0 | 0.00 | 0.00 | 0.00 | 82 | 1019.0 |
| 20260905174954 | 28 | 22 | 11.3 | 14.5 | 0.00 | 0.00 | 0.00 | 82 | 1019.0 |
| 20260905174449 | 28 | 29 | 11.3 | 12.9 | 0.00 | 0.00 | 0.00 | 81 | 1018.9 |
| 20260905173945 | 28 | 83 | 6.4 | 11.3 | 0.00 | 0.00 | 0.00 | 83 | 1019.0 |
| 20260905173441 | 28 | 355 | 12.9 | 16.1 | 0.00 | 0.00 | 0.00 | 82 | 1019.0 |
| 20260905172936 | 28 | 7 | 11.3 | 14.5 | 0.00 | 0.00 | 0.00 | 83 | 1019.2 |
| 20260905172434 | 28 | 348 | 11.3 | 14.5 | 0.00 | 0.00 | 0.00 | 82 | 1018.9 |
| 20260905171930 | 28 | 19 | 16.1 | 17.7 | 0.00 | 0.00 | 0.00 | 83 | 1019.0 |
| 20260905171426 | 28 | 37 | 6.4 | 9.7 | 0.00 | 0.00 | 0.00 | 85 | 1019.0 |
| 20260905170923 | 28 | 3 | 11.3 | 12.9 | 0.00 | 0.00 | 0.00 | 85 | 1019.0 |
| 20260905170418 | 28 | 358 | 9.7 | 11.3 | 0.00 | 0.00 | 0.00 | 85 | 1019.1 |
| 20260905165917 | 28 | 25 | 6.4 | 8.0 | 0.00 | 0.00 | 0.00 | 82 | 1019.4 |
| 20260905165413 | 28 | 24 | 8.0 | 9.7 | 0.00 | 0.00 | 0.00 | 85 | 1019.2 |
| 20260905164908 | 28 | 68 | 8.0 | 12.9 | 0.00 | 0.00 | 0.00 | 85 | 1019.2 |
| 20260905164402 | 27 | 12 | 12.9 | 14.5 | 0.00 | 0.00 | 0.00 | 85 | 1019.2 |
| 20260905163858 | 28 | 7 | 9.7 | 11.3 | 0.00 | 0.00 | 0.00 | 87 | 1019.1 |
| 20260905163354 | 27 | 350 | 9.7 | 12.9 | 0.00 | 0.00 | 0.00 | 88 | 1019.2 |
| 20260905162850 | 28 | 29 | 4.8 | 8.0 | 0.00 | 0.00 | 0.00 | 88 | 1019.4 |
| 20260905162349 | 28 | 23 | 12.9 | 17.7 | 0.00 | 0.00 | 0.00 | 88 | 1019.3 |
| 20260905161844 | 28 | 53 | 4.8 | 4.8 | 0.00 | 0.00 | 0.00 | 89 | 1019.2 |
| 20260905161344 | 28 | 48 | 4.8 | 4.8 | 0.00 | 0.00 | 0.00 | 89 | 1019.1 |
| 20260905160842 | 28 | 12 | 9.7 | 12.9 | 0.00 | 0.00 | 0.00 | 88 | 1019.3 |
| 20260905160336 | 27 | 351 | 6.4 | 8.0 | 0.00 | 0.00 | 0.00 | 90 | 1019.3 |
| 20260905155831 | 27 | 20 | 8.0 | 9.7 | 0.00 | 0.00 | 0.00 | 90 | 1019.2 |
| 20260905155331 | 27 | 44 | 6.4 | 8.0 | 0.00 | 0.00 | 0.00 | 89 | 1019.1 |
| 20260905154830 | 27 | 41 | 8.0 | 9.7 | 0.00 | 0.00 | 0.00 | 89 | 1019.0 |
| 20260905154326 | 27 | 24 | 6.4 | 8.0 | 0.00 | 0.00 | 0.00 | 89 | 1018.9 |
| 20260905153821 | 27 | 338 | 9.7 | 12.9 | 0.00 | 0.00 | 0.00 | 89 | 1019.1 |
| 20260905153318 | 27 | 358 | 9.7 | 14.5 | 0.00 | 0.00 | 0.00 | 89 | 1019.2 |
| 20260905152817 | 27 | 14 | 12.9 | 14.5 | 0.00 | 0.00 | 0.00 | 90 | 1019.1 |
| 20260905152316 | 27 | 45 | 6.4 | 8.0 | 0.00 | 0.00 | 0.00 | 91 | 1019.1 |
| 20260905151812 | 27 | 54 | 9.7 | 12.9 | 0.00 | 0.00 | 0.00 | 92 | 1019.0 |
| 20260905151307 | 27 | 20 | 14.5 | 17.7 | 0.00 | 0.00 | 0.00 | 91 | 1019.0 |
| 20260905150808 | 27 | 23 | 8.0 | 14.5 | 0.00 | 0.00 | 0.00 | 90 | 1018.7 |
| 20260905150307 | 27 | 349 | 11.3 | 12.9 | 0.00 | 0.00 | 0.00 | 89 | 1018.8 |
| 20260905145805 | 27 | 6 | 9.7 | 11.3 | 0.00 | 0.00 | 0.00 | 91 | 1018.8 |
| 20260905145259 | 27 | 44 | 6.4 | 8.0 | 0.00 | 0.00 | 0.00 | 91 | 1018.5 |
| 20260905144757 | 28 | 32 | 8.0 | 9.7 | 0.00 | 0.00 | 0.00 | 90 | 1018.5 |
| 20260905144254 | 27 | 65 | 1.6 | 3.2 | 0.00 | 0.00 | 0.00 | 93 | 1018.4 |
| 20260905143752 | 27 | 34 | 9.7 | 11.3 | 0.00 | 0.00 | 0.00 | 93 | 1018.2 |
| 20260905143247 | 26 | 12 | 9.7 | 11.3 | 0.00 | 0.00 | 0.00 | 93 | 1018.3 |
| 20260905142745 | 27 | 27 | 8.0 | 11.3 | 0.00 | 0.00 | 0.00 | 92 | 1018.2 |
| 20260905142240 | 27 | 15 | 8.0 | 8.0 | 0.00 | 0.00 | 0.00 | 93 | 1018.4 |
| 20260905141736 | 27 | 349 | 11.3 | 11.3 | 0.00 | 0.00 | 0.00 | 91 | 1018.2 |
| 20260905141232 | 27 | 20 | 4.8 | 4.8 | 0.00 | 0.00 | 0.00 | 93 | 1018.3 |
| 20260905140727 | 27 | 69 | 4.8 | 4.8 | 0.00 | 0.00 | 0.00 | 92 | 1018.4 |
| 20260905140221 | 27 | 37 | 1.6 | 1.6 | 0.00 | 0.00 | 0.00 | 92 | 1018.5 |
| 20260905135720 | 27 | 43 | 6.4 | 8.0 | 0.00 | 0.00 | 0.00 | 94 | 1018.8 |
| 20260905135217 | 26 | 16 | 4.8 | 4.8 | 0.00 | 0.00 | 0.00 | 96 | 1018.6 |
| 20260905134716 | 26 | 36 | 4.8 | 4.8 | 0.00 | 0.00 | 0.00 | 96 | 1018.7 |
| 20260905134215 | 26 | 38 | 4.8 | 4.8 | 0.00 | 0.00 | 0.00 | 96 | 1018.7 |
| 20260905133711 | 26 | 34 | 4.8 | 8.0 | 0.00 | 0.00 | 0.00 | 96 | 1018.7 |
| 20260905133211 | 26 | 39 | 8.0 | 9.7 | 0.00 | 0.00 | 0.00 | 96 | 1018.7 |
| 20260905132710 | 26 | 27 | 8.0 | 9.7 | 0.00 | 0.00 | 0.00 | 97 | 1018.6 |
| 20260905132206 | 25 | 14 | 6.4 | 9.7 | 0.00 | 0.00 | 0.00 | 99 | 1018.5 |
| 20260905131701 | 25 | 21 | 4.8 | 4.8 | 0.00 | 0.00 | 0.00 | 99 | 1018.3 |
| 20260905131156 | 25 | 353 | 6.4 | 8.0 | 0.00 | 0.00 | 0.00 | 99 | 1018.5 |
| 20260905130655 | 25 | 25 | 6.4 | 8.0 | 0.00 | 0.00 | 0.00 | 99 | 1018.2 |
| 20260905130150 | 25 | 55 | 3.2 | 3.2 | 0.00 | 0.00 | 0.00 | 99 | 1018.2 |
| 20260905125650 | 25 | 78 | 1.6 | 3.2 | 0.00 | 0.00 | 0.00 | 99 | 1018.2 |
| 20260905125146 | 25 | 94 | 3.2 | 3.2 | 0.00 | 0.00 | 0.00 | 99 | 1018.2 |
| 20260905124641 | 25 | 95 | 1.6 | 1.6 | 0.00 | 0.00 | 0.00 | 99 | 1018.2 |
| 20260905124138 | 25 | 95 | 0.0 | 1.6 | 0.00 | 0.00 | 0.00 | 99 | 1018.1 |
| 20260905123633 | 25 | 95 | 1.6 | 1.6 | 0.00 | 0.00 | 0.00 | 99 | 1018.0 |
| 20260905123130 | 24 | 95 | 0.0 | 0.0 | 0.00 | 0.00 | 0.00 | 99 | 1018.0 |
| 20260905122629 | 24 | 95 | 1.6 | 1.6 | 0.00 | 0.00 | 0.00 | 99 | 1018.0 |
| 20260905122124 | 23 | 95 | 0.0 | 1.6 | 0.00 | 0.00 | 0.00 | 99 | 1017.8 |
| 20260905121619 | 23 | 95 | 0.0 | 0.0 | 0.00 | 0.00 | 0.00 | 99 | 1017.7 |
| 20260905121114 | 23 | 95 | 0.0 | 0.0 | 0.00 | 0.00 | 0.00 | 99 | 1017.7 |
| 20260905120613 | 23 | 95 | 0.0 | 0.0 | 0.00 | 0.00 | 0.00 | 99 | 1017.8 |
| 20260905120109 | 23 | 95 | 0.0 | 0.0 | 0.00 | 0.00 | 0.00 | 99 | 1017.5 |
| 20260905115607 | 23 | 95 | 0.0 | 0.0 | 0.00 | 0.00 | 0.00 | 99 | 1017.4 |
| 20260905115102 | 23 | 95 | 3.2 | 3.2 | 0.00 | 0.00 | 0.00 | 99 | 1017.3 |
| 20260905114602 | 23 | 95 | 1.6 | 3.2 | 0.00 | 0.00 | 0.00 | 99 | 1017.3 |
| 20260905114101 | 23 | 95 | 1.6 | 1.6 | 0.00 | 0.00 | 0.00 | 99 | 1017.3 |
| 20260905113556 | 23 | 95 | 1.6 | 1.6 | 0.00 | 0.00 | 0.00 | 99 | 1017.4 |
| 20260905113051 | 23 | 95 | 0.0 | 0.0 | 0.00 | 0.00 | 0.00 | 99 | 1017.3 |
| 20260905112546 | 23 | 95 | 1.6 | 3.2 | 0.00 | 0.00 | 0.00 | 99 | 1017.4 |
| 20260905112041 | 23 | 95 | 3.2 | 3.2 | 0.00 | 0.00 | 0.00 | 99 | 1017.2 |
| 20260905111537 | 23 | 95 | 3.2 | 3.2 | 0.00 | 0.00 | 0.00 | 99 | 1017.4 |
| 20260905111036 | 23 | 94 | 0.0 | 0.0 | 0.00 | 0.00 | 0.00 | 99 | 1017.2 |
| 20260905110535 | 23 | 94 | 0.0 | 0.0 | 0.00 | 0.00 | 0.00 | 99 | 1017.3 |
| 20260905110030 | 23 | 94 | 0.0 | 0.0 | 0.00 | 0.00 | 0.00 | 99 | 1017.3 |
| 20260905105530 | 23 | 94 | 0.0 | 1.6 | 0.00 | 0.00 | 0.00 | 99 | 1017.2 |
| 20260905105029 | 23 | 94 | 0.0 | 0.0 | 0.00 | 0.00 | 0.00 | 99 | 1017.2 |
| 20260905104526 | 23 | 94 | 0.0 | 0.0 | 0.00 | 0.00 | 0.00 | 99 | 1017.4 |
| 20260905104025 | 23 | 94 | 0.0 | 0.0 | 0.00 | 0.00 | 0.00 | 99 | 1017.3 |
| 20260905103520 | 23 | 94 | 0.0 | 0.0 | 0.00 | 0.00 | 0.00 | 99 | 1017.4 |
| 20260905103017 | 23 | 94 | 0.0 | 0.0 | 0.00 | 0.00 | 0.00 | 99 | 1017.4 |
| 20260905102512 | 23 | 93 | 0.0 | 0.0 | 0.00 | 0.00 | 0.00 | 99 | 1017.6 |
| 20260905102008 | 23 | 93 | 0.0 | 0.0 | 0.00 | 0.00 | 0.00 | 99 | 1017.3 |
| 20260905101507 | 23 | 93 | 0.0 | 0.0 | 0.00 | 0.00 | 0.00 | 99 | 1017.3 |
| 20260905101005 | 23 | 93 | 1.6 | 1.6 | 0.00 | 0.00 | 0.00 | 99 | 1017.6 |
| 20260905100501 | 23 | 93 | 1.6 | 1.6 | 0.00 | 0.00 | 0.00 | 99 | 1017.5 |
| 20260905100000 | 23 | 89 | 1.6 | 3.2 | 0.00 | 0.00 | 0.00 | 99 | 1017.6 |
| 20260905095455 | 24 | 243 | 1.6 | 1.6 | 0.00 | 0.00 | 0.00 | 99 | 1017.3 |
| 20260905094951 | 24 | 243 | 0.0 | 0.0 | 0.00 | 0.00 | 0.00 | 99 | 1017.4 |
| 20260905094446 | 24 | 243 | 1.6 | 1.6 | 0.00 | 0.00 | 0.00 | 99 | 1017.4 |
| 20260905093944 | 24 | 244 | 0.0 | 0.0 | 0.00 | 0.00 | 0.00 | 99 | 1017.3 |
| 20260905093440 | 24 | 244 | 0.0 | 0.0 | 0.00 | 0.00 | 0.00 | 99 | 1017.4 |
| 20260905092936 | 24 | 244 | 0.0 | 0.0 | 0.00 | 0.00 | 0.00 | 99 | 1017.2 |
| 20260905092431 | 24 | 244 | 0.0 | 0.0 | 0.00 | 0.00 | 0.00 | 99 | 1017.4 |
| 20260905091927 | 24 | 244 | 0.0 | 0.0 | 0.00 | 0.00 | 0.00 | 99 | 1017.2 |
| 20260905091427 | 24 | 244 | 0.0 | 0.0 | 0.00 | 0.00 | 0.00 | 99 | 1017.4 |
| 20260905090926 | 24 | 244 | 0.0 | 0.0 | 0.00 | 0.00 | 0.00 | 99 | 1017.2 |
| 20260905090421 | 24 | 244 | 0.0 | 0.0 | 0.00 | 0.00 | 0.00 | 99 | 1017.2 |
| 20260905085920 | 25 | 244 | 0.0 | 0.0 | 0.00 | 0.00 | 0.00 | 99 | 1017.2 |
| 20260905085414 | 25 | 244 | 0.0 | 0.0 | 0.00 | 0.00 | 0.00 | 99 | 1017.4 |
| 20260905084911 | 25 | 244 | 0.0 | 0.0 | 0.00 | 0.00 | 0.00 | 99 | 1017.4 |
| 20260905084410 | 25 | 244 | 0.0 | 0.0 | 0.00 | 0.00 | 0.00 | 99 | 1017.4 |
| 20260905083905 | 25 | 244 | 3.2 | 3.2 | 0.00 | 0.00 | 0.00 | 99 | 1017.1 |
| 20260905083401 | 25 | 244 | 3.2 | 3.2 | 0.00 | 0.00 | 0.00 | 99 | 1017.6 |
| 20260905082856 | 25 | 244 | 1.6 | 1.6 | 0.00 | 0.00 | 0.00 | 99 | 1017.5 |
| 20260905082351 | 25 | 244 | 0.0 | 0.0 | 0.00 | 0.00 | 0.00 | 99 | 1017.3 |
| 20260905081846 | 25 | 244 | 0.0 | 0.0 | 0.00 | 0.00 | 0.00 | 99 | 1017.3 |
| 20260905081341 | 25 | 244 | 0.0 | 0.0 | 0.00 | 0.00 | 0.00 | 99 | 1017.3 |
| 20260905080841 | 25 | 244 | 0.0 | 0.0 | 0.00 | 0.00 | 0.00 | 99 | 1017.3 |
| 20260905080340 | 25 | 244 | 0.0 | 0.0 | 0.00 | 0.00 | 0.00 | 99 | 1017.5 |
| 20260905075839 | 25 | 244 | 1.6 | 1.6 | 0.00 | 0.00 | 0.00 | 99 | 1017.2 |
| 20260905075339 | 25 | 244 | 1.6 | 3.2 | 0.00 | 0.00 | 0.00 | 99 | 1017.3 |
| 20260905074838 | 25 | 244 | 0.0 | 0.0 | 0.00 | 0.00 | 0.00 | 99 | 1017.4 |
| 20260905074334 | 25 | 244 | 1.6 | 1.6 | 0.00 | 0.00 | 0.00 | 99 | 1017.3 |
| 20260905073830 | 25 | 244 | 0.0 | 0.0 | 0.00 | 0.00 | 0.00 | 99 | 1017.0 |
| 20260905073325 | 25 | 244 | 0.0 | 0.0 | 0.00 | 0.00 | 0.00 | 99 | 1017.0 |
| 20260905072825 | 25 | 244 | 1.6 | 1.6 | 0.00 | 0.00 | 0.00 | 99 | 1017.3 |
| 20260905072321 | 25 | 244 | 1.6 | 3.2 | 0.00 | 0.00 | 0.00 | 99 | 1017.3 |
| 20260905071817 | 25 | 244 | 3.2 | 3.2 | 0.00 | 0.00 | 0.00 | 99 | 1017.1 |
| 20260905071313 | 25 | 242 | 1.6 | 1.6 | 0.00 | 0.00 | 0.00 | 99 | 1017.1 |
| 20260905070808 | 25 | 242 | 1.6 | 1.6 | 0.00 | 0.00 | 0.00 | 99 | 1016.9 |
| 20260905070304 | 25 | 242 | 1.6 | 1.6 | 0.00 | 0.00 | 0.00 | 99 | 1017.4 |
| 20260905065803 | 25 | 242 | 1.6 | 1.6 | 0.00 | 0.00 | 0.00 | 99 | 1017.4 |
| 20260905065256 | 25 | 242 | 1.6 | 1.6 | 0.00 | 0.00 | 0.00 | 99 | 1017.1 |
| 20260905064752 | 25 | 242 | 3.2 | 3.2 | 0.00 | 0.00 | 0.00 | 99 | 1017.1 |
| 20260905064247 | 25 | 243 | 4.8 | 4.8 | 0.00 | 0.00 | 0.00 | 98 | 1017.0 |
| 20260905063746 | 25 | 240 | 6.4 | 8.0 | 0.00 | 0.00 | 0.00 | 98 | 1017.4 |
| 20260905063242 | 25 | 240 | 6.4 | 8.0 | 0.00 | 0.00 | 0.00 | 99 | 1017.3 |
| 20260905062737 | 25 | 240 | 4.8 | 4.8 | 0.00 | 0.00 | 0.00 | 98 | 1017.5 |
| 20260905062231 | 25 | 240 | 3.2 | 3.2 | 0.00 | 0.00 | 0.00 | 98 | 1017.5 |
| 20260905061731 | 25 | 240 | 4.8 | 4.8 | 0.00 | 0.00 | 0.00 | 99 | 1017.7 |
| 20260905061227 | 25 | 240 | 3.2 | 3.2 | 0.00 | 0.00 | 0.00 | 99 | 1017.6 |
| 20260905060726 | 25 | 240 | 1.6 | 1.6 | 0.00 | 0.00 | 0.00 | 99 | 1017.3 |
| 20260905060223 | 25 | 240 | 0.0 | 0.0 | 0.00 | 0.00 | 0.00 | 99 | 1017.8 |
| 20260905055721 | 25 | 240 | 0.0 | 0.0 | 0.00 | 0.00 | 0.00 | 99 | 1017.5 |
| 20260905055217 | 25 | 240 | 0.0 | 0.0 | 0.00 | 0.00 | 0.00 | 99 | 1017.7 |
| 20260905054712 | 25 | 240 | 0.0 | 0.0 | 0.00 | 0.00 | 0.00 | 99 | 1017.6 |
| 20260905054208 | 25 | 240 | 1.6 | 1.6 | 0.00 | 0.00 | 0.00 | 99 | 1017.8 |
| 20260905053707 | 25 | 240 | 0.0 | 0.0 | 0.00 | 0.00 | 0.00 | 99 | 1017.8 |
| 20260905053202 | 25 | 240 | 1.6 | 1.6 | 0.00 | 0.00 | 0.00 | 99 | 1017.9 |
| 20260905052657 | 25 | 240 | 3.2 | 3.2 | 0.00 | 0.00 | 0.00 | 99 | 1017.8 |
| 20260905052152 | 25 | 240 | 1.6 | 1.6 | 0.00 | 0.00 | 0.00 | 99 | 1017.9 |
| 20260905051652 | 25 | 240 | 0.0 | 1.6 | 0.00 | 0.00 | 0.00 | 99 | 1017.9 |
| 20260905051148 | 25 | 240 | 1.6 | 1.6 | 0.00 | 0.00 | 0.00 | 99 | 1017.8 |
| 20260905050644 | 25 | 240 | 0.0 | 0.0 | 0.00 | 0.00 | 0.00 | 99 | 1017.8 |
| 20260905050142 | 25 | 240 | 1.6 | 1.6 | 0.00 | 0.00 | 0.00 | 99 | 1017.7 |
| 20260905045641 | 25 | 240 | 1.6 | 3.2 | 0.00 | 0.00 | 0.00 | 99 | 1017.7 |
| 20260905045137 | 25 | 240 | 1.6 | 3.2 | 0.00 | 0.00 | 0.00 | 99 | 1017.7 |
| 20260905044636 | 25 | 240 | 1.6 | 3.2 | 0.00 | 0.00 | 0.00 | 99 | 1017.9 |
| 20260905044131 | 26 | 240 | 1.6 | 3.2 | 0.00 | 0.00 | 0.00 | 99 | 1017.9 |
| 20260905043630 | 26 | 240 | 3.2 | 3.2 | 0.00 | 0.00 | 0.00 | 99 | 1017.7 |
| 20260905043125 | 26 | 240 | 3.2 | 3.2 | 0.00 | 0.00 | 0.00 | 99 | 1017.8 |
| 20260905042624 | 25 | 240 | 1.6 | 1.6 | 0.00 | 0.00 | 0.00 | 99 | 1018.0 |
| 20260905042119 | 25 | 240 | 1.6 | 1.6 | 0.00 | 0.00 | 0.00 | 99 | 1018.1 |
| 20260905041615 | 25 | 240 | 0.0 | 0.0 | 0.00 | 0.00 | 0.00 | 99 | 1018.1 |
| 20260905041110 | 26 | 240 | 0.0 | 0.0 | 0.00 | 0.00 | 0.00 | 99 | 1018.0 |
| 20260905040610 | 26 | 240 | 1.6 | 1.6 | 0.00 | 0.00 | 0.00 | 99 | 1017.8 |
| 20260905040109 | 25 | 240 | 3.2 | 3.2 | 0.00 | 0.00 | 0.00 | 99 | 1018.0 |
| 20260905035604 | 25 | 240 | 0.0 | 0.0 | 0.00 | 0.00 | 0.00 | 99 | 1018.0 |
| 20260905035101 | 25 | 240 | 0.0 | 0.0 | 0.00 | 0.00 | 0.00 | 99 | 1018.2 |
| 20260905034557 | 25 | 240 | 0.0 | 0.0 | 0.00 | 0.00 | 0.00 | 99 | 1018.0 |
| 20260905034056 | 25 | 240 | 0.0 | 0.0 | 0.00 | 0.00 | 0.00 | 99 | 1018.2 |
| 20260905033550 | 26 | 240 | 0.0 | 0.0 | 0.00 | 0.00 | 0.00 | 99 | 1018.2 |
| 20260905033046 | 26 | 240 | 0.0 | 0.0 | 0.00 | 0.00 | 0.00 | 99 | 1018.2 |
| 20260905032547 | 26 | 240 | 1.6 | 1.6 | 0.00 | 0.00 | 0.00 | 99 | 1018.2 |
| 20260905032046 | 26 | 240 | 3.2 | 3.2 | 0.00 | 0.00 | 0.00 | 98 | 1018.2 |
| 20260905031543 | 26 | 240 | 1.6 | 3.2 | 0.00 | 0.00 | 0.00 | 99 | 1018.2 |
| 20260905031042 | 26 | 240 | 1.6 | 1.6 | 0.00 | 0.00 | 0.00 | 99 | 1018.1 |
| 20260905030537 | 26 | 240 | 0.0 | 0.0 | 0.00 | 0.00 | 0.00 | 99 | 1018.2 |